Time;durP1;ratioP1;P1;durP2;ratioP2;P2;SDS_P1;SDS_P2;PMS_P1;PMS_P2;Temp;Humidity;BMP_temperature;BMP_pressure;BME280_temperature;BME280_humidity;BME280_pressure;Samples;Min_cycle;Max_cycle;Signal;HPM_P1;HPM_P2
2022/06/29 00:01:18;;;;;;;6.47;2.15;;;;;;;26.51;39.70;98846.41;5029672;28;20042;-73
2022/06/29 00:03:45;;;;;;;7.88;2.50;;;;;;;26.54;39.54;98849.47;4996836;28;20037;-72
2022/06/29 00:06:11;;;;;;;5.63;2.40;;;;;;;26.56;39.59;98851.09;5014683;28;20559;-73
2022/06/29 00:08:36;;;;;;;4.15;2.38;;;;;;;26.58;39.57;98851.69;5014480;28;20049;-72
2022/06/29 00:11:02;;;;;;;4.57;2.20;;;;;;;26.55;39.86;98860.97;5014530;28;20048;-73
2022/06/29 00:13:27;;;;;;;5.00;2.58;;;;;;;26.61;39.71;98864.66;4997075;28;20030;-73
2022/06/29 00:15:53;;;;;;;3.25;2.13;;;;;;;26.61;39.98;98864.66;5014233;28;20469;-74
2022/06/29 00:18:18;;;;;;;4.75;2.40;;;;;;;26.58;39.90;98868.56;4997078;28;20034;-73
2022/06/29 00:20:44;;;;;;;5.55;2.40;;;;;;;26.56;39.63;98859.13;4997283;28;20057;-73
2022/06/29 00:23:10;;;;;;;4.10;2.35;;;;;;;26.52;39.48;98864.94;5014684;28;20038;-73
2022/06/29 00:25:36;;;;;;;4.68;2.30;;;;;;;26.48;40.22;98870.94;5013188;28;20410;-74
2022/06/29 00:28:01;;;;;;;3.40;2.30;;;;;;;26.48;39.79;98866.38;4996737;28;20084;-74
2022/06/29 00:30:27;;;;;;;7.28;2.60;;;;;;;26.48;40.18;98869.06;5029312;28;20507;-74
2022/06/29 00:32:52;;;;;;;6.03;2.60;;;;;;;26.47;40.10;98867.44;5014263;28;20050;-72
2022/06/29 00:35:18;;;;;;;7.53;2.45;;;;;;;26.44;39.82;98864.38;5013097;28;20040;-72
2022/06/29 00:37:43;;;;;;;4.35;2.30;;;;;;;26.46;40.05;98863.13;5013270;28;20123;-73
2022/06/29 00:40:09;;;;;;;6.20;2.20;;;;;;;26.42;39.86;98856.56;4980135;28;20069;-73
2022/06/29 00:42:35;;;;;;;5.38;2.38;;;;;;;26.42;40.01;98863.78;5012104;28;20480;-72
2022/06/29 00:45:00;;;;;;;6.72;2.25;;;;;;;26.39;40.60;98862.34;5012666;28;20042;-72
2022/06/29 00:47:26;;;;;;;5.60;2.15;;;;;;;26.35;40.37;98853.94;5012377;28;20045;-73
2022/06/29 00:49:52;;;;;;;8.15;2.80;;;;;;;26.38;40.07;98862.56;4996772;28;20030;-74
2022/06/29 00:52:17;;;;;;;3.38;2.00;;;;;;;26.34;40.51;98862.97;4996512;28;20088;-74
2022/06/29 00:54:54;;;;;;;3.85;2.20;;;;;;;26.33;40.52;98864.03;4996412;28;20040;-74
2022/06/29 00:57:21;;;;;;;4.10;2.53;;;;;;;26.33;40.57;98861.38;4980605;28;20481;-72
2022/06/29 00:59:55;;;;;;;4.43;2.40;;;;;;;26.30;40.57;98855.63;4980054;28;20281;-73
2022/06/29 01:02:23;;;;;;;6.47;2.38;;;;;;;26.27;40.25;98840.81;4980335;28;20364;-73
2022/06/29 01:04:49;;;;;;;7.38;2.20;;;;;;;26.29;40.38;98840.59;5012100;28;20025;-72
2022/06/29 01:07:19;;;;;;;7.03;2.47;;;;;;;26.26;40.63;98833.00;5012579;28;20038;-72
2022/06/29 01:09:45;;;;;;;3.17;2.38;;;;;;;26.20;40.62;98823.16;5012215;28;20057;-73
2022/06/29 01:12:11;;;;;;;2.90;2.03;;;;;;;26.18;40.73;98823.38;4996293;28;20029;-73
2022/06/29 01:14:36;;;;;;;4.30;2.40;;;;;;;26.16;41.33;98822.78;5012566;28;20438;-73
2022/06/29 01:17:03;;;;;;;5.45;2.55;;;;;;;26.09;41.03;98822.84;5013453;28;20109;-73
2022/06/29 01:19:28;;;;;;;4.85;2.38;;;;;;;26.11;40.92;98822.63;4996039;28;20026;-73
2022/06/29 01:21:54;;;;;;;6.32;2.42;;;;;;;26.07;41.18;98816.88;5012073;28;20030;-73
2022/06/29 01:24:20;;;;;;;5.68;2.20;;;;;;;26.00;41.30;98802.72;4995893;28;20481;-73
2022/06/29 01:26:45;;;;;;;7.47;2.28;;;;;;;25.99;41.65;98809.91;5012093;28;20026;-73
2022/06/29 01:29:11;;;;;;;4.53;2.28;;;;;;;25.98;41.69;98818.16;4979250;28;20486;-73
2022/06/29 01:31:36;;;;;;;2.78;1.95;;;;;;;25.96;41.69;98814.84;5011806;28;20026;-73
2022/06/29 01:34:02;;;;;;;3.45;2.40;;;;;;;25.94;41.31;98814.25;5012988;28;20101;-73
2022/06/29 01:36:27;;;;;;;5.50;2.50;;;;;;;25.90;41.67;98808.53;4995284;28;20092;-74
2022/06/29 01:38:53;;;;;;;7.75;2.20;;;;;;;25.89;41.73;98806.88;4979312;28;20125;-73
2022/06/29 01:41:18;;;;;;;6.60;2.15;;;;;;;25.85;41.53;98807.53;5011406;28;20244;-74
2022/06/29 01:43:44;;;;;;;3.00;2.20;;;;;;;25.80;41.72;98816.19;5013053;28;20038;-73
2022/06/29 01:46:09;;;;;;;4.97;2.33;;;;;;;25.78;41.78;98807.56;5011814;28;20525;-73
2022/06/29 01:48:35;;;;;;;4.97;2.30;;;;;;;25.75;41.59;98813.34;5011889;28;20034;-78
2022/06/29 01:51:00;;;;;;;4.68;2.20;;;;;;;25.73;41.89;98818.06;4978724;28;20084;-80
2022/06/29 01:53:26;;;;;;;5.30;2.17;;;;;;;25.72;41.87;98821.78;5011450;28;20030;-80
2022/06/29 01:55:52;;;;;;;3.60;2.13;;;;;;;25.67;41.75;98814.41;4979190;28;20054;-80
2022/06/29 01:58:17;;;;;;;6.85;2.30;;;;;;;25.64;41.93;98818.31;4979038;28;20042;-80
2022/06/29 02:00:43;;;;;;;6.28;2.28;;;;;;;25.60;42.08;98813.59;4995519;28;20033;-81
2022/06/29 02:03:09;;;;;;;4.78;2.30;;;;;;;25.57;42.14;98817.53;5011769;28;20026;-80
2022/06/29 02:05:34;;;;;;;4.40;2.40;;;;;;;25.51;42.30;98810.38;4995389;28;20379;-81
2022/06/29 02:08:00;;;;;;;6.20;2.08;;;;;;;25.50;42.20;98803.38;4995412;28;20366;-81
2022/06/29 02:10:25;;;;;;;3.22;2.13;;;;;;;25.46;42.74;98800.31;4995106;28;20025;-81
2022/06/29 02:12:51;;;;;;;3.50;2.40;;;;;;;25.47;42.75;98806.47;4994829;28;20038;-81
2022/06/29 02:15:16;;;;;;;4.22;2.28;;;;;;;25.44;42.85;98804.22;4995496;28;20045;-80
2022/06/29 02:17:42;;;;;;;3.50;2.30;;;;;;;25.42;42.91;98798.28;4978851;28;20497;-81
2022/06/29 02:20:08;;;;;;;4.88;2.53;;;;;;;25.42;42.83;98807.09;5011717;28;20026;-79
2022/06/29 02:22:34;;;;;;;3.65;2.20;;;;;;;25.43;43.29;98802.59;4992297;28;20034;-77
2022/06/29 02:24:59;;;;;;;12.18;2.70;;;;;;;25.54;43.45;98801.09;4984420;28;20036;-74
2022/06/29 02:27:25;;;;;;;7.97;2.35;;;;;;;25.58;43.31;98792.44;5001415;28;20038;-74
2022/06/29 02:29:50;;;;;;;7.18;2.67;;;;;;;25.65;42.96;98792.41;4999098;28;20561;-72
2022/06/29 02:35:00;;;;;;;3.83;2.40;;;;;;;25.71;42.58;98780.84;4999385;28;20033;-76
2022/06/29 02:37:25;;;;;;;8.15;2.40;;;;;;;25.66;42.45;98777.19;5000854;28;20022;-75
2022/06/29 02:39:51;;;;;;;4.18;2.50;;;;;;;25.66;42.79;98779.88;5000509;28;20061;-77
2022/06/29 02:42:16;;;;;;;3.15;2.22;;;;;;;25.67;42.68;98782.31;4982141;28;20101;-75
2022/06/29 02:44:42;;;;;;;6.65;2.10;;;;;;;25.68;42.75;98778.63;5001459;28;20033;-75
2022/06/29 02:47:08;;;;;;;3.58;2.10;;;;;;;25.66;42.44;98780.69;5000031;28;20480;-74
2022/06/29 02:49:33;;;;;;;7.32;2.33;;;;;;;25.70;42.89;98787.25;4982418;28;20045;-73
2022/06/29 02:51:59;;;;;;;4.00;2.33;;;;;;;25.71;42.71;98783.50;5000224;28;20053;-75
2022/06/29 02:54:25;;;;;;;25.02;2.92;;;;;;;25.69;42.71;98774.91;4999291;28;20018;-75
2022/06/29 02:56:50;;;;;;;14.93;2.33;;;;;;;25.64;42.39;98783.56;5004877;28;20503;-71
2022/06/29 02:59:16;;;;;;;11.90;2.20;;;;;;;25.64;42.63;98794.25;4994800;28;20026;-75
2022/06/29 03:01:41;;;;;;;6.88;2.20;;;;;;;25.70;42.13;98791.78;4994636;28;20478;-75
2022/06/29 03:04:07;;;;;;;9.48;2.25;;;;;;;25.79;41.78;98782.44;5011110;28;20045;-74
2022/06/29 03:06:32;;;;;;;5.93;2.20;;;;;;;26.07;41.04;98782.09;4994757;28;20042;-73
2022/06/29 03:08:58;;;;;;;8.05;1.98;;;;;;;26.31;40.79;98779.66;4994603;28;20046;-73
2022/06/29 03:11:23;;;;;;;8.25;2.25;;;;;;;26.62;40.05;98784.13;5010362;28;20041;-74
2022/06/29 03:13:49;;;;;;;4.10;2.28;;;;;;;26.85;39.25;98791.56;4994339;28;20161;-74
2022/06/29 03:16:14;;;;;;;5.13;2.50;;;;;;;27.11;38.87;98778.91;4994351;28;20037;-73
2022/06/29 03:18:40;;;;;;;5.68;2.55;;;;;;;27.46;37.90;98781.00;4994551;28;20038;-74
2022/06/29 03:21:06;;;;;;;5.38;2.20;;;;;;;27.70;37.51;98770.38;5010782;28;20452;-78
2022/06/29 03:23:31;;;;;;;6.03;2.25;;;;;;;28.18;36.79;98780.22;5010231;28;20042;-77
2022/06/29 03:25:57;;;;;;;6.93;2.03;;;;;;;28.63;36.04;98785.06;5012091;28;20025;-77
2022/06/29 03:28:22;;;;;;;7.35;2.25;;;;;;;29.10;35.45;98769.94;5012290;28;20037;-77
2022/06/29 03:30:48;;;;;;;15.10;2.50;;;;;;;29.59;34.74;98776.59;5013625;28;20068;-78
2022/06/29 03:33:13;;;;;;;12.13;2.35;;;;;;;30.13;33.27;98778.09;5013870;28;20046;-76
2022/06/29 03:35:39;;;;;;;6.88;2.17;;;;;;;30.64;32.59;98778.91;4980057;28;20132;-77
2022/06/29 03:38:04;;;;;;;11.20;2.20;;;;;;;31.13;31.93;98777.44;5012654;28;20073;-77
2022/06/29 03:40:40;;;;;;;6.63;2.08;;;;;;;31.61;30.72;98783.13;5014429;28;20049;-76
2022/06/29 03:43:05;;;;;;;12.75;2.30;;;;;;;32.04;30.11;98782.22;5015192;28;20026;-76
2022/06/29 03:45:31;;;;;;;9.25;2.15;;;;;;;32.48;29.49;98775.81;5014067;28;20481;-77
2022/06/29 03:47:57;;;;;;;10.90;2.20;;;;;;;32.91;28.35;98770.41;4994731;28;20557;-77
2022/06/29 03:50:22;;;;;;;8.07;2.13;;;;;;;33.39;28.07;98778.50;4992972;28;20070;-77
2022/06/29 03:52:49;;;;;;;5.90;1.95;;;;;;;33.77;27.18;98779.16;5012375;28;20695;-77
2022/06/29 03:55:14;;;;;;;6.93;1.67;;;;;;;34.20;26.96;98777.00;5011467;28;20022;-77
2022/06/29 03:57:40;;;;;;;3.40;1.80;;;;;;;34.57;25.89;98779.44;5011290;28;20052;-76
2022/06/29 04:00:06;;;;;;;5.38;2.00;;;;;;;34.95;25.98;98768.25;5012596;28;20026;-76
2022/06/29 04:02:31;;;;;;;6.97;1.52;;;;;;;35.35;24.87;98771.09;4997490;28;20099;-76
2022/06/29 04:04:57;;;;;;;6.13;2.00;;;;;;;35.74;24.68;98770.28;5013250;28;20046;-77
2022/06/29 04:07:23;;;;;;;5.80;1.63;;;;;;;36.04;24.72;98769.28;5024047;28;20111;-78
2022/06/29 04:09:48;;;;;;;6.45;1.98;;;;;;;36.39;24.20;98764.69;5014796;28;20064;-77
2022/06/29 04:12:14;;;;;;;6.38;1.88;;;;;;;36.81;24.01;98757.72;5014672;28;20030;-78
2022/06/29 04:14:39;;;;;;;4.18;1.75;;;;;;;37.23;23.39;98756.16;4997116;28;20045;-78
2022/06/29 04:17:07;;;;;;;3.90;1.65;;;;;;;37.64;23.27;98755.56;5014699;28;20042;-77
2022/06/29 04:19:32;;;;;;;5.82;1.55;;;;;;;38.09;22.78;98757.06;5013371;28;20053;-78
2022/06/29 04:21:58;;;;;;;5.72;1.90;;;;;;;38.49;22.80;98754.75;4997553;28;20549;-76
2022/06/29 04:24:23;;;;;;;3.22;1.80;;;;;;;38.93;21.72;98747.91;5014793;28;20026;-77
2022/06/29 04:26:49;;;;;;;11.13;2.22;;;;;;;39.33;21.41;98750.09;4980396;28;20061;-76
2022/06/29 04:29:14;;;;;;;5.50;1.85;;;;;;;39.70;21.32;98749.00;5014457;28;20467;-77
2022/06/29 04:31:40;;;;;;;8.50;1.70;;;;;;;40.12;20.74;98738.69;5013049;28;20485;-78
2022/06/29 04:34:05;;;;;;;6.82;1.70;;;;;;;40.61;20.00;98740.69;5014600;28;20030;-80
2022/06/29 04:36:31;;;;;;;5.90;1.60;;;;;;;41.00;19.48;98748.06;5014249;28;20061;-80
2022/06/29 04:38:56;;;;;;;6.85;1.83;;;;;;;41.43;18.69;98749.28;5012530;28;20062;-77
2022/06/29 04:41:22;;;;;;;11.57;1.80;;;;;;;41.77;18.44;98755.91;5012371;28;20067;-78
2022/06/29 04:43:48;;;;;;;6.07;2.00;;;;;;;42.23;17.61;98765.38;4997986;28;20113;-78
2022/06/29 04:46:19;;;;;;;4.88;1.70;;;;;;;42.59;17.15;98766.88;5014113;28;20026;-78
2022/06/29 04:48:56;;;;;;;9.85;1.80;;;;;;;43.08;16.64;98766.50;5012935;28;20033;-76
2022/06/29 04:51:23;;;;;;;9.88;1.70;;;;;;;43.47;16.17;98777.38;4997015;28;20057;-77
2022/06/29 04:53:48;;;;;;;4.63;1.83;;;;;;;43.86;15.92;98764.31;5012521;28;20180;-77
2022/06/29 04:56:15;;;;;;;7.27;1.77;;;;;;;44.22;15.40;98771.88;5011732;28;20066;-79
2022/06/29 04:58:41;;;;;;;12.07;1.80;;;;;;;44.61;14.99;98777.91;5012322;28;20034;-78
2022/06/29 05:01:06;;;;;;;7.77;1.40;;;;;;;45.02;14.37;98775.28;5012580;28;20371;-81
2022/06/29 05:03:32;;;;;;;4.13;1.30;;;;;;;45.38;13.88;98776.38;5013725;28;20037;-81
2022/06/29 05:05:57;;;;;;;5.87;1.07;;;;;;;45.80;13.73;98783.47;5011195;28;20041;-81
2022/06/29 05:08:23;;;;;;;4.37;1.00;;;;;;;46.20;13.51;98780.66;5012187;28;20042;-80
2022/06/29 05:10:49;;;;;;;4.53;1.10;;;;;;;46.65;12.57;98788.88;5029019;28;20046;-81
2022/06/29 05:13:15;;;;;;;4.13;1.00;;;;;;;46.97;12.41;98780.56;5012815;28;20421;-81
2022/06/29 05:15:40;;;;;;;8.23;1.33;;;;;;;47.31;12.29;98784.50;4996156;28;20034;-82
2022/06/29 05:18:06;;;;;;;3.93;1.00;;;;;;;47.59;11.94;98781.53;4995906;28;20042;-81
2022/06/29 05:20:31;;;;;;;2.53;0.83;;;;;;;47.93;11.57;98775.50;5012447;28;20065;-82
2022/06/29 05:22:57;;;;;;;4.63;1.00;;;;;;;48.26;11.49;98774.91;5011975;28;20482;-81
2022/06/29 05:25:22;;;;;;;4.37;1.10;;;;;;;48.51;11.15;98767.06;5012491;28;20030;-81
2022/06/29 05:27:48;;;;;;;6.33;1.10;;;;;;;48.81;10.99;98776.66;5012073;28;20057;-80
2022/06/29 05:30:14;;;;;;;7.57;1.20;;;;;;;49.03;10.79;98781.31;5013137;28;20025;-81
2022/06/29 05:32:39;;;;;;;1.75;0.93;;;;;;;49.28;10.19;98775.34;5013400;28;20108;-80
2022/06/29 05:35:06;;;;;;;3.87;1.00;;;;;;;49.50;10.53;98778.38;5012267;28;20092;-81
2022/06/29 05:37:31;;;;;;;;;;;;;;;49.51;10.41;98775.25;5012583;28;20025;-81
2022/06/29 05:39:57;;;;;;;4.32;1.20;;;;;;;49.83;9.77;98787.88;5012165;28;20446;-81
2022/06/29 05:42:22;;;;;;;5.75;1.15;;;;;;;50.01;9.71;98782.53;5012375;28;20042;-82
2022/06/29 05:44:48;;;;;;;4.50;1.20;;;;;;;50.17;9.62;98783.09;5012254;28;20026;-82
2022/06/29 05:47:14;;;;;;;2.80;1.00;;;;;;;50.27;9.89;98778.84;5012171;28;20061;-81
2022/06/29 05:49:39;;;;;;;;;;;;;;;50.09;9.93;98778.66;5012724;28;20033;-80
2022/06/29 05:52:05;;;;;;;1.73;1.08;;;;;;;50.38;9.34;98781.72;5013342;28;20301;-81
2022/06/29 05:54:31;;;;;;;6.20;1.25;;;;;;;50.54;9.84;98792.53;5012236;28;20116;-80
2022/06/29 05:56:56;;;;;;;2.65;1.10;;;;;;;50.59;9.53;98790.22;5013044;28;20044;-80
2022/06/29 05:59:22;;;;;;;3.90;1.30;;;;;;;50.63;9.57;98784.72;4995436;28;20401;-81
2022/06/29 06:01:47;;;;;;;5.70;1.25;;;;;;;50.65;9.11;98777.56;4995349;28;20453;-82
2022/06/29 06:04:13;;;;;;;2.83;1.13;;;;;;;50.67;9.03;98788.28;5012176;28;20038;-81
2022/06/29 06:06:38;;;;;;;3.05;1.23;;;;;;;50.62;9.71;98795.00;5012809;28;20756;-81
2022/06/29 06:09:04;;;;;;;4.38;1.48;;;;;;;50.62;9.66;98792.22;5011463;28;20437;-81
2022/06/29 06:11:29;;;;;;;3.10;1.00;;;;;;;50.65;9.12;98787.91;5011389;28;20033;-81
2022/06/29 06:13:55;;;;;;;5.70;1.15;;;;;;;50.65;9.48;98796.22;5012808;28;20037;-81
2022/06/29 06:16:20;;;;;;;2.65;1.20;;;;;;;50.64;9.76;98795.44;5011704;28;20061;-81
2022/06/29 06:18:46;;;;;;;4.47;1.10;;;;;;;50.57;9.22;98792.59;5012780;28;20034;-81
2022/06/29 06:21:11;;;;;;;3.00;1.10;;;;;;;50.49;9.19;98780.59;5012092;28;20418;-81
2022/06/29 06:23:37;;;;;;;3.43;1.20;;;;;;;50.46;9.14;98780.59;4994711;28;20625;-80
2022/06/29 06:26:02;;;;;;;6.13;1.52;;;;;;;50.39;9.49;98786.06;5010977;28;20335;-80
2022/06/29 06:28:28;;;;;;;5.03;1.45;;;;;;;50.30;9.21;98784.41;5011401;28;20378;-82
2022/06/29 06:30:53;;;;;;;4.53;1.30;;;;;;;50.24;8.97;98785.16;4978190;28;20030;-82
2022/06/29 06:33:19;;;;;;;6.47;1.40;;;;;;;50.11;9.29;98784.63;5012298;28;20301;-81
2022/06/29 06:35:44;;;;;;;2.53;1.20;;;;;;;50.05;9.19;98781.38;4995119;28;20276;-80
2022/06/29 06:38:10;;;;;;;4.23;1.40;;;;;;;49.96;9.23;98780.88;4978889;28;20037;-81
2022/06/29 06:43:19;;;;;;;3.38;1.27;;;;;;;49.75;10.11;98778.69;5011467;28;20452;-82
2022/06/29 06:45:44;;;;;;;4.53;1.07;;;;;;;49.68;9.88;98773.84;5011029;28;20029;-81
2022/06/29 06:48:10;;;;;;;2.37;1.10;;;;;;;49.59;10.12;98778.91;5011121;28;20064;-81
2022/06/29 06:50:35;;;;;;;4.23;1.30;;;;;;;49.50;9.96;98775.63;5011325;28;20277;-82
2022/06/29 06:53:02;;;;;;;4.33;1.30;;;;;;;49.38;10.53;98765.56;5011460;28;20060;-82
2022/06/29 06:55:28;;;;;;;2.42;1.00;;;;;;;49.25;9.95;98771.34;5011030;28;20038;-82
2022/06/29 06:57:54;;;;;;;3.70;1.40;;;;;;;49.16;10.36;98765.28;5011272;28;20026;-82
2022/06/29 07:00:19;;;;;;;4.97;1.10;;;;;;;49.06;9.76;98768.69;5011667;28;20465;-82
2022/06/29 07:02:45;;;;;;;3.80;0.97;;;;;;;48.99;10.24;98766.59;5011985;28;20025;-82
2022/06/29 07:05:10;;;;;;;8.13;1.30;;;;;;;48.88;10.38;98769.22;5016100;28;20037;-82
2022/06/29 07:07:36;;;;;;;3.87;1.03;;;;;;;48.76;10.31;98763.06;4998947;28;20033;-82
2022/06/29 07:10:01;;;;;;;3.13;1.17;;;;;;;48.63;10.29;98771.59;5014903;28;20112;-82
2022/06/29 07:12:27;;;;;;;2.80;1.13;;;;;;;48.54;10.70;98771.06;5016243;28;20065;-82
2022/06/29 07:14:52;;;;;;;2.10;1.00;;;;;;;48.37;10.62;98772.34;5015835;28;20034;-82
2022/06/29 07:17:18;;;;;;;2.80;1.20;;;;;;;48.22;10.37;98764.97;5014994;28;20172;-81
2022/06/29 07:19:43;;;;;;;4.77;1.20;;;;;;;48.05;10.17;98772.59;5014758;28;20036;-82
2022/06/29 07:22:09;;;;;;;2.43;1.00;;;;;;;47.79;10.28;98770.47;5014770;28;20520;-82
2022/06/29 07:24:34;;;;;;;17.10;1.33;;;;;;;47.58;10.28;98779.13;4998022;28;20103;-82
2022/06/29 07:27:00;;;;;;;8.90;1.10;;;;;;;47.30;9.83;98766.31;5015897;28;20355;-82
2022/06/29 07:29:26;;;;;;;4.63;1.10;;;;;;;46.92;9.82;98763.13;4998120;28;20113;-82
2022/06/29 07:31:51;;;;;;;3.87;1.27;;;;;;;46.73;10.36;98763.84;4998081;28;20034;-82
2022/06/29 07:34:17;;;;;;;5.00;1.30;;;;;;;46.56;10.74;98766.97;5015835;28;20030;-82
2022/06/29 07:36:42;;;;;;;7.13;1.17;;;;;;;46.37;10.68;98770.41;5014465;28;20457;-82
2022/06/29 07:39:08;;;;;;;5.97;1.20;;;;;;;46.14;10.66;98768.25;5014643;28;20540;-81
2022/06/29 07:41:33;;;;;;;4.03;1.20;;;;;;;45.96;10.55;98753.19;5014426;28;20026;-81
2022/06/29 07:43:59;;;;;;;5.47;1.20;;;;;;;45.74;10.82;98760.88;5015255;28;20030;-81
2022/06/29 07:46:24;;;;;;;5.70;1.10;;;;;;;45.62;11.01;98763.66;4998005;28;20034;-81
2022/06/29 07:48:50;;;;;;;5.03;1.30;;;;;;;45.46;10.41;98763.63;5014182;28;20042;-81
2022/06/29 07:51:16;;;;;;;6.43;1.30;;;;;;;45.24;10.61;98770.41;5013990;28;20152;-84
2022/06/29 07:53:41;;;;;;;3.33;1.00;;;;;;;45.00;10.88;98779.53;4997747;28;20502;-81
2022/06/29 07:56:07;;;;;;;9.53;1.03;;;;;;;44.78;10.69;98776.06;5015808;28;20022;-81
2022/06/29 07:58:32;;;;;;;7.77;1.23;;;;;;;44.44;11.00;98767.09;5014816;28;20072;-81
2022/06/29 08:00:58;;;;;;;3.60;1.10;;;;;;;44.23;11.12;98768.00;5013508;28;20034;-81
2022/06/29 08:03:23;;;;;;;7.43;1.13;;;;;;;44.06;11.40;98771.69;4997690;28;20061;-81
2022/06/29 08:05:49;;;;;;;5.13;1.30;;;;;;;43.77;11.57;98769.84;5013294;28;20053;-81
2022/06/29 08:08:14;;;;;;;11.77;1.33;;;;;;;43.67;11.28;98776.56;5013722;28;20513;-81
2022/06/29 08:10:40;;;;;;;8.00;1.30;;;;;;;43.41;11.51;98768.53;5013711;28;20030;-81
2022/06/29 08:13:05;;;;;;;22.50;2.00;;;;;;;43.20;11.54;98765.75;5014777;28;20040;-82
2022/06/29 08:15:31;;;;;;;3.97;1.30;;;;;;;42.79;11.67;98772.75;4997275;28;20029;-81
2022/06/29 08:17:56;;;;;;;10.27;1.47;;;;;;;42.70;11.79;98778.31;4997802;28;20064;-82
2022/06/29 08:20:22;;;;;;;5.67;1.10;;;;;;;42.34;12.01;98770.50;5013428;28;20390;-81
2022/06/29 08:22:47;;;;;;;6.33;1.13;;;;;;;42.29;12.60;98777.78;5013702;28;20042;-80
2022/06/29 08:25:13;;;;;;;5.72;1.30;;;;;;;41.99;11.88;98782.34;5013496;28;20034;-80
2022/06/29 08:27:39;;;;;;;4.43;1.10;;;;;;;41.80;12.54;98788.16;4997080;28;20374;-80
2022/06/29 08:30:05;;;;;;;8.30;1.00;;;;;;;41.52;12.72;98779.44;4996346;28;20045;-81
2022/06/29 08:32:31;;;;;;;2.95;1.08;;;;;;;41.23;12.87;98778.09;4997158;28;20405;-82
2022/06/29 08:35:01;;;;;;;5.00;1.30;;;;;;;41.04;12.74;98773.69;4996910;28;20034;-81
2022/06/29 08:37:30;;;;;;;5.53;1.20;;;;;;;40.97;12.81;98765.13;4997990;28;20120;-82
2022/06/29 08:39:55;;;;;;;4.20;1.25;;;;;;;40.96;12.71;98777.22;4997422;28;20032;-81
2022/06/29 08:42:22;;;;;;;5.05;1.27;;;;;;;40.80;13.02;98770.53;4996993;28;20420;-81
2022/06/29 08:44:49;;;;;;;;;;;;;;;40.91;13.02;98773.81;5013907;28;20037;-81
2022/06/29 08:47:14;;;;;;;6.13;1.30;;;;;;;40.82;13.04;98760.88;5013497;28;19916;-81
2022/06/29 08:49:40;;;;;;;3.00;1.05;;;;;;;40.83;13.36;98773.47;4996525;28;20489;-79
2022/06/29 08:52:06;;;;;;;7.68;1.30;;;;;;;40.81;13.31;98766.69;5012435;28;20046;-81
2022/06/29 08:54:34;;;;;;;11.50;1.45;;;;;;;40.63;13.61;98768.56;5012795;28;20030;-81
2022/06/29 08:57:00;;;;;;;6.47;1.38;;;;;;;40.51;13.94;98769.94;4997456;28;20435;-80
2022/06/29 08:59:26;;;;;;;5.40;1.30;;;;;;;40.23;14.05;98772.03;4996612;28;20044;-81
2022/06/29 09:01:52;;;;;;;8.15;1.25;;;;;;;40.06;14.29;98767.28;4996612;28;20025;-81
2022/06/29 09:04:18;;;;;;;7.30;1.30;;;;;;;40.08;13.93;98770.50;5012731;28;20042;-81
2022/06/29 09:06:45;;;;;;;8.95;1.40;;;;;;;40.05;14.21;98762.91;4996213;28;20125;-82
2022/06/29 09:09:10;;;;;;;;;;;;;;;40.12;14.39;98768.75;4996858;28;20054;-81
2022/06/29 09:11:36;;;;;;;4.33;1.20;;;;;;;40.01;14.24;98764.69;5012276;28;19914;-82
2022/06/29 09:14:14;;;;;;;7.82;1.60;;;;;;;39.62;14.94;98774.31;4996287;28;20481;-82
2022/06/29 09:16:48;;;;;;;5.50;1.05;;;;;;;39.74;14.99;98777.31;5013964;28;20056;-82
2022/06/29 09:19:14;;;;;;;8.27;1.48;;;;;;;39.74;14.83;98769.13;5028831;28;20165;-82
2022/06/29 09:21:51;;;;;;;6.60;1.30;;;;;;;39.56;15.22;98767.34;5012017;28;20034;-81
2022/06/29 09:24:34;;;;;;;6.72;1.30;;;;;;;39.27;15.37;98787.63;4996473;28;20053;-81
2022/06/29 09:27:07;;;;;;;7.30;1.65;;;;;;;39.04;15.59;98784.78;4997883;28;20064;-82
2022/06/29 09:29:36;;;;;;;9.27;1.58;;;;;;;39.16;15.57;98788.97;4996869;28;20030;-81
2022/06/29 09:32:03;;;;;;;6.28;1.20;;;;;;;39.16;15.87;98792.50;4995887;28;20037;-81
2022/06/29 09:34:29;;;;;;;;;;;;;;;38.93;15.76;98788.84;5028974;28;20448;-80
2022/06/29 09:36:55;;;;;;;4.07;1.30;;;;;;;38.63;16.29;98788.31;5012165;28;19909;-80
2022/06/29 09:39:37;;;;;;;3.30;1.25;;;;;;;38.73;16.33;98790.06;4995365;28;20078;-79
2022/06/29 09:42:03;;;;;;;5.93;1.50;;;;;;;38.44;16.45;98790.28;4995813;28;20040;-81
2022/06/29 09:44:29;;;;;;;8.10;1.48;;;;;;;38.36;16.41;98791.78;4995310;28;20490;-79
2022/06/29 09:46:55;;;;;;;2.85;1.50;;;;;;;38.09;16.97;98792.50;5013443;28;20041;-80
2022/06/29 09:49:26;;;;;;;3.90;1.30;;;;;;;38.28;16.57;98781.56;4996050;28;20121;-80
2022/06/29 09:51:56;;;;;;;4.80;1.48;;;;;;;38.21;16.66;98779.25;4995918;28;20038;-82
2022/06/29 09:54:30;;;;;;;8.73;1.35;;;;;;;38.14;16.56;98781.50;5012391;28;20041;-81
2022/06/29 09:56:56;;;;;;;4.95;1.30;;;;;;;37.87;17.12;98783.00;4995610;28;20026;-82
2022/06/29 10:05:09;;;;;;;6.70;1.55;;;;;;;37.02;18.49;98781.94;5012247;28;20037;-82
2022/06/29 10:07:36;;;;;;;6.78;1.40;;;;;;;37.14;18.47;98782.34;4996588;28;20575;-81
2022/06/29 10:10:02;;;;;;;;;;;;;;;37.20;18.17;98778.47;5012180;28;20382;-81
2022/06/29 10:15:33;;;;;;;4.73;1.33;;;;;;;37.17;18.57;98773.59;4999536;28;20559;-81
2022/06/29 10:18:26;;;;;;;3.38;1.27;;;;;;;37.03;18.43;98776.22;4996804;28;20028;-80
2022/06/29 10:20:51;;;;;;;4.75;1.35;;;;;;;37.09;18.24;98776.97;5030825;28;20054;-82
2022/06/29 10:23:55;;;;;;;6.68;1.23;;;;;;;37.05;18.26;98787.66;5011726;28;20033;-82
2022/06/29 10:26:35;;;;;;;3.70;1.23;;;;;;;36.99;18.28;98779.81;4972368;28;20045;-81
2022/06/29 10:29:10;;;;;;;5.57;1.40;;;;;;;36.92;18.25;98777.44;4956143;28;20367;-83
2022/06/29 10:32:02;;;;;;;6.53;1.40;;;;;;;37.00;18.43;98776.00;4971504;28;20152;-81
2022/06/29 10:34:30;;;;;;;6.13;1.38;;;;;;;36.95;18.10;98768.72;4955307;28;20050;-80
2022/06/29 10:37:02;;;;;;;6.35;1.42;;;;;;;36.82;17.95;98762.06;4972327;28;20081;-82
2022/06/29 10:39:44;;;;;;;4.82;1.38;;;;;;;36.85;17.97;98764.22;4975259;28;20082;-81
2022/06/29 10:45:14;;;;;;;3.13;1.20;;;;;;;36.86;18.19;98767.72;4975092;28;20033;-81
2022/06/29 10:47:43;;;;;;;4.22;1.30;;;;;;;36.97;17.76;98760.25;4958993;28;20043;-81
2022/06/29 10:50:14;;;;;;;8.60;1.42;;;;;;;36.99;17.94;98763.50;4959599;28;20047;-81
2022/06/29 10:52:40;;;;;;;4.70;1.13;;;;;;;36.91;17.78;98749.44;4975499;28;20549;-81
2022/06/29 10:55:06;;;;;;;4.93;1.38;;;;;;;36.83;18.13;98747.38;4975096;28;20106;-81
2022/06/29 10:57:42;;;;;;;6.55;1.50;;;;;;;36.75;18.07;98742.56;4972060;28;20413;-79
2022/06/29 11:00:09;;;;;;;7.18;1.50;;;;;;;36.70;18.34;98756.19;4978586;28;20185;-81
2022/06/29 11:02:35;;;;;;;3.85;1.30;;;;;;;36.54;18.64;98742.75;4978646;28;20053;-81
2022/06/29 11:05:01;;;;;;;3.42;1.30;;;;;;;36.47;19.01;98742.31;4978270;28;20038;-81
2022/06/29 11:12:55;;;;;;;5.53;1.23;;;;;;;36.04;19.09;98747.53;4981048;28;20052;-81
2022/06/29 11:15:42;;;;;;;3.70;1.38;;;;;;;35.92;18.49;98747.13;4978153;28;20050;-82
2022/06/29 11:18:08;;;;;;;7.22;1.45;;;;;;;35.78;18.85;98747.75;4980078;28;20026;-81
2022/06/29 11:20:34;;;;;;;6.28;1.15;;;;;;;35.73;19.21;98736.91;4978000;28;20502;-81
2022/06/29 11:23:00;;;;;;;3.60;1.20;;;;;;;35.75;19.94;98736.63;4994526;28;20176;-81
2022/06/29 11:25:26;;;;;;;6.57;1.20;;;;;;;35.71;19.78;98732.84;4982363;28;20069;-81
2022/06/29 11:27:51;;;;;;;3.72;1.30;;;;;;;35.69;19.70;98728.53;4999009;28;20173;-82
2022/06/29 11:30:22;;;;;;;4.70;1.27;;;;;;;35.60;19.34;98732.13;5014462;28;20499;-80
2022/06/29 11:32:48;;;;;;;3.45;1.23;;;;;;;35.57;18.90;98724.56;5014691;28;20440;-82
2022/06/29 11:35:19;;;;;;;6.10;1.20;;;;;;;35.51;18.99;98713.72;4997518;28;20132;-81
2022/06/29 11:37:49;;;;;;;6.80;1.20;;;;;;;35.54;18.89;98712.34;4998544;28;20037;-80
2022/06/29 11:40:17;;;;;;;4.93;1.23;;;;;;;35.58;18.77;98718.84;5014523;28;20026;-80
2022/06/29 11:45:36;;;;;;;3.35;1.38;;;;;;;35.58;18.25;98710.69;5014547;28;20041;-81
2022/06/29 11:48:09;;;;;;;7.95;1.40;;;;;;;35.53;18.64;98712.63;5030239;28;20022;-81
2022/06/29 11:50:59;;;;;;;5.78;1.17;;;;;;;35.53;18.39;98712.63;5014207;28;20029;-81
2022/06/29 11:53:48;;;;;;;3.55;1.27;;;;;;;35.54;18.20;98715.06;4996766;28;20054;-80
2022/06/29 11:56:15;;;;;;;9.73;1.40;;;;;;;35.55;18.39;98710.44;4998919;28;20030;-80
2022/06/29 11:58:44;;;;;;;5.68;1.17;;;;;;;35.56;18.01;98696.56;4997750;28;20072;-81